sensor_id;sensor_type;location;lat;lon;timestamp;pressure;altitude;pressure_sealevel;temperature;humidity
31239;BME280;17871;31.584;74.450;2023-02-01T00:00:04;99096.88;;;13.67;69.59
31239;BME280;17871;31.584;74.450;2023-02-01T00:02:35;99096.91;;;13.66;69.29
31239;BME280;17871;31.584;74.450;2023-02-01T00:05:09;99098.59;;;13.67;68.65
31239;BME280;17871;31.584;74.450;2023-02-01T00:07:38;99095.19;;;13.66;68.57
31239;BME280;17871;31.584;74.450;2023-02-01T00:10:08;99099.50;;;13.72;67.88
31239;BME280;17871;31.584;74.450;2023-02-01T00:12:38;99096.03;;;13.67;68.46
31239;BME280;17871;31.584;74.450;2023-02-01T00:15:09;99089.19;;;13.70;67.82
31239;BME280;17871;31.584;74.450;2023-02-01T00:17:39;99095.19;;;13.68;68.54
31239;BME280;17871;31.584;74.450;2023-02-01T00:20:09;99095.09;;;13.57;67.46
31239;BME280;17871;31.584;74.450;2023-02-01T00:22:39;99096.00;;;13.61;67.83
31239;BME280;17871;31.584;74.450;2023-02-01T00:25:10;99101.13;;;13.61;67.39
31239;BME280;17871;31.584;74.450;2023-02-01T00:27:40;99098.53;;;13.55;67.54
31239;BME280;17871;31.584;74.450;2023-02-01T00:30:10;99091.69;;;13.55;67.57
31239;BME280;17871;31.584;74.450;2023-02-01T00:32:40;99098.50;;;13.50;68.23
31239;BME280;17871;31.584;74.450;2023-02-01T00:35:09;99101.09;;;13.50;67.47
31239;BME280;17871;31.584;74.450;2023-02-01T00:37:40;99101.91;;;13.49;67.82
31239;BME280;17871;31.584;74.450;2023-02-01T00:40:10;99101.91;;;13.50;67.68
31239;BME280;17871;31.584;74.450;2023-02-01T00:42:40;99096.78;;;13.53;67.75
31239;BME280;17871;31.584;74.450;2023-02-01T00:45:10;99097.69;;;13.57;67.19
31239;BME280;17871;31.584;74.450;2023-02-01T00:47:39;99094.28;;;13.57;66.72
31239;BME280;17871;31.584;74.450;2023-02-01T00:50:09;99096.00;;;13.59;67.14
31239;BME280;17871;31.584;74.450;2023-02-01T00:52:39;99095.97;;;13.53;67.47
31239;BME280;17871;31.584;74.450;2023-02-01T00:55:08;99093.38;;;13.55;67.49
31239;BME280;17871;31.584;74.450;2023-02-01T00:57:38;99095.94;;;13.51;66.84
31239;BME280;17871;31.584;74.450;2023-02-01T01:00:08;99094.22;;;13.53;67.47
31239;BME280;17871;31.584;74.450;2023-02-01T01:02:41;99086.56;;;13.55;67.39
31239;BME280;17871;31.584;74.450;2023-02-01T01:05:11;99093.31;;;13.47;67.35
31239;BME280;17871;31.584;74.450;2023-02-01T01:07:45;99087.34;;;13.43;67.91
31239;BME280;17871;31.584;74.450;2023-02-01T01:10:16;99093.31;;;13.42;67.68
31239;BME280;17871;31.584;74.450;2023-02-01T01:12:47;99095.00;;;13.40;67.99
31239;BME280;17871;31.584;74.450;2023-02-01T01:15:17;99095.81;;;13.35;67.84
31239;BME280;17871;31.584;74.450;2023-02-01T01:17:48;99107.63;;;13.10;69.08
31239;BME280;17871;31.584;74.450;2023-02-01T01:20:33;99112.81;;;13.19;69.25
31239;BME280;17871;31.584;74.450;2023-02-01T01:23:05;99114.31;;;12.99;70.77
31239;BME280;17871;31.584;74.450;2023-02-01T01:29:40;99120.25;;;12.93;70.69
31239;BME280;17871;31.584;74.450;2023-02-01T01:32:11;99124.56;;;12.99;70.58
31239;BME280;17871;31.584;74.450;2023-02-01T01:34:42;99131.38;;;12.94;69.07
31239;BME280;17871;31.584;74.450;2023-02-01T01:37:13;99130.63;;;13.06;69.63
31239;BME280;17871;31.584;74.450;2023-02-01T01:39:53;99130.56;;;13.01;69.68
31239;BME280;17871;31.584;74.450;2023-02-01T01:42:25;99131.44;;;13.00;69.74
31239;BME280;17871;31.584;74.450;2023-02-01T01:45:05;99127.31;;;13.17;69.03
31239;BME280;17871;31.584;74.450;2023-02-01T01:47:44;99123.09;;;13.19;69.52
31239;BME280;17871;31.584;74.450;2023-02-01T01:50:21;99124.72;;;13.11;69.46
31239;BME280;17871;31.584;74.450;2023-02-01T01:52:55;99130.50;;;12.95;69.92
31239;BME280;17871;31.584;74.450;2023-02-01T01:55:31;99132.19;;;12.90;70.71
31239;BME280;17871;31.584;74.450;2023-02-01T01:58:08;99136.63;;;13.06;69.55
31239;BME280;17871;31.584;74.450;2023-02-01T02:00:40;99138.22;;;12.95;69.99
31239;BME280;17871;31.584;74.450;2023-02-01T02:03:47;99152.13;;;13.14;69.61
31239;BME280;17871;31.584;74.450;2023-02-01T02:09:01;99144.84;;;12.75;70.92
31239;BME280;17871;31.584;74.450;2023-02-01T02:11:34;99153.53;;;12.87;70.27
31239;BME280;17871;31.584;74.450;2023-02-01T02:14:45;99151.03;;;12.95;69.86
31239;BME280;17871;31.584;74.450;2023-02-01T02:17:33;99154.56;;;13.03;71.09
31239;BME280;17871;31.584;74.450;2023-02-01T02:20:37;99167.41;;;13.06;70.97
31239;BME280;17871;31.584;74.450;2023-02-01T02:29:52;99164.13;;;13.19;69.71
31239;BME280;17871;31.584;74.450;2023-02-01T02:32:40;99166.78;;;13.27;69.17
31239;BME280;17871;31.584;74.450;2023-02-01T02:35:38;99165.03;;;13.27;69.35
31239;BME280;17871;31.584;74.450;2023-02-01T02:41:18;99171.97;;;13.33;68.32
31239;BME280;17871;31.584;74.450;2023-02-01T02:48:03;99179.84;;;13.56;67.93
31239;BME280;17871;31.584;74.450;2023-02-01T02:50:29;99192.72;;;13.62;67.76
31239;BME280;17871;31.584;74.450;2023-02-01T02:53:45;99182.53;;;13.71;67.07
31239;BME280;17871;31.584;74.450;2023-02-01T02:56:37;99185.97;;;13.73;66.58
31239;BME280;17871;31.584;74.450;2023-02-01T02:59:27;99186.84;;;13.75;66.02
31239;BME280;17871;31.584;74.450;2023-02-01T03:02:17;99197.22;;;13.88;65.26
31239;BME280;17871;31.584;74.450;2023-02-01T03:05:05;99187.78;;;13.87;65.00
31239;BME280;17871;31.584;74.450;2023-02-01T03:12:51;99197.41;;;14.20;64.10
31239;BME280;17871;31.584;74.450;2023-02-01T03:18:26;99208.69;;;14.40;63.96
31239;BME280;17871;31.584;74.450;2023-02-01T03:21:00;99221.53;;;14.40;63.64
31239;BME280;17871;31.584;74.450;2023-02-01T03:23:34;99225.00;;;14.45;63.83
31239;BME280;17871;31.584;74.450;2023-02-01T03:26:11;99235.31;;;14.51;63.24
31239;BME280;17871;31.584;74.450;2023-02-01T03:28:52;99237.03;;;14.52;63.70
31239;BME280;17871;31.584;74.450;2023-02-01T03:31:25;99246.47;;;14.53;63.29
31239;BME280;17871;31.584;74.450;2023-02-01T03:33:56;99257.66;;;14.62;63.41
31239;BME280;17871;31.584;74.450;2023-02-01T03:41:53;99258.56;;;14.71;63.08
31239;BME280;17871;31.584;74.450;2023-02-01T03:44:49;99260.38;;;14.98;62.32
31239;BME280;17871;31.584;74.450;2023-02-01T03:47:25;99267.22;;;14.99;62.63
31239;BME280;17871;31.584;74.450;2023-02-01T03:50:05;99266.41;;;15.06;62.31
31239;BME280;17871;31.584;74.450;2023-02-01T03:52:47;99275.00;;;15.11;62.92
31239;BME280;17871;31.584;74.450;2023-02-01T03:55:20;99268.09;;;14.98;61.87
31239;BME280;17871;31.584;74.450;2023-02-01T03:58:07;99278.47;;;15.25;62.51
31239;BME280;17871;31.584;74.450;2023-02-01T04:00:39;99284.41;;;15.06;62.35
31239;BME280;17871;31.584;74.450;2023-02-01T04:03:08;99284.44;;;15.11;61.58
31239;BME280;17871;31.584;74.450;2023-02-01T04:05:37;99287.00;;;15.15;61.94
31239;BME280;17871;31.584;74.450;2023-02-01T04:08:08;99282.75;;;15.23;62.54
31239;BME280;17871;31.584;74.450;2023-02-01T04:10:37;99290.50;;;15.32;61.53
31239;BME280;17871;31.584;74.450;2023-02-01T04:13:07;99287.09;;;15.39;62.01
31239;BME280;17871;31.584;74.450;2023-02-01T04:15:37;99291.44;;;15.49;61.66
31239;BME280;17871;31.584;74.450;2023-02-01T04:18:06;99295.75;;;15.50;60.92
31239;BME280;17871;31.584;74.450;2023-02-01T04:20:35;99300.91;;;15.56;61.45
31239;BME280;17871;31.584;74.450;2023-02-01T04:23:05;99306.06;;;15.72;61.48
31239;BME280;17871;31.584;74.450;2023-02-01T04:25:34;99315.50;;;15.71;60.91
31239;BME280;17871;31.584;74.450;2023-02-01T04:28:03;99325.84;;;15.73;60.95
31239;BME280;17871;31.584;74.450;2023-02-01T04:30:33;99331.88;;;15.87;60.78
31239;BME280;17871;31.584;74.450;2023-02-01T04:33:02;99337.88;;;15.83;60.16
31239;BME280;17871;31.584;74.450;2023-02-01T04:35:35;99331.84;;;15.85;60.07
31239;BME280;17871;31.584;74.450;2023-02-01T04:38:04;99335.31;;;15.99;60.10
31239;BME280;17871;31.584;74.450;2023-02-01T04:40:33;99342.19;;;16.03;59.73
31239;BME280;17871;31.584;74.450;2023-02-01T04:43:02;99350.78;;;16.19;60.07
31239;BME280;17871;31.584;74.450;2023-02-01T04:45:55;99340.47;;;16.30;59.57
31239;BME280;17871;31.584;74.450;2023-02-01T04:48:24;99347.34;;;16.29;59.81
31239;BME280;17871;31.584;74.450;2023-02-01T04:50:53;99354.19;;;16.30;59.72
31239;BME280;17871;31.584;74.450;2023-02-01T04:53:22;99355.91;;;16.40;59.95
31239;BME280;17871;31.584;74.450;2023-02-01T04:55:51;99362.78;;;16.50;60.02
31239;BME280;17871;31.584;74.450;2023-02-01T04:58:21;99355.94;;;16.58;59.09
31239;BME280;17871;31.584;74.450;2023-02-01T05:00:50;99366.25;;;16.68;59.36
31239;BME280;17871;31.584;74.450;2023-02-01T05:03:20;99361.94;;;16.70;58.83
31239;BME280;17871;31.584;74.450;2023-02-01T05:05:49;99362.78;;;16.76;57.99
31239;BME280;17871;31.584;74.450;2023-02-01T05:08:20;99361.97;;;16.59;58.07
31239;BME280;17871;31.584;74.450;2023-02-01T05:10:54;99365.38;;;16.73;57.72
31239;BME280;17871;31.584;74.450;2023-02-01T05:13:23;99369.63;;;16.97;58.33
31239;BME280;17871;31.584;74.450;2023-02-01T05:16:13;99364.44;;;17.03;58.54
31239;BME280;17871;31.584;74.450;2023-02-01T05:18:43;99360.97;;;17.13;58.45
31239;BME280;17871;31.584;74.450;2023-02-01T05:21:12;99361.78;;;17.29;58.20
31239;BME280;17871;31.584;74.450;2023-02-01T05:23:42;99365.19;;;17.31;57.90
31239;BME280;17871;31.584;74.450;2023-02-01T05:26:30;99363.47;;;17.31;57.71
31239;BME280;17871;31.584;74.450;2023-02-01T05:29:03;99359.91;;;17.53;56.89
31239;BME280;17871;31.584;74.450;2023-02-01T05:31:36;99358.25;;;17.40;57.34
31239;BME280;17871;31.584;74.450;2023-02-01T05:34:12;99351.19;;;17.77;58.43
31239;BME280;17871;31.584;74.450;2023-02-01T05:36:48;99364.91;;;17.85;57.65
31239;BME280;17871;31.584;74.450;2023-02-01T05:42:32;99364.94;;;17.84;56.54
31239;BME280;17871;31.584;74.450;2023-02-01T05:45:03;99366.59;;;17.94;56.64
31239;BME280;17871;31.584;74.450;2023-02-01T05:47:45;99356.28;;;17.91;56.16
31239;BME280;17871;31.584;74.450;2023-02-01T05:50:16;99361.28;;;18.12;56.09
31239;BME280;17871;31.584;74.450;2023-02-01T05:52:47;99344.03;;;18.15;56.24
31239;BME280;17871;31.584;74.450;2023-02-01T05:55:17;99348.28;;;18.23;55.57
31239;BME280;17871;31.584;74.450;2023-02-01T05:57:48;99336.19;;;18.26;54.99
31239;BME280;17871;31.584;74.450;2023-02-01T06:00:20;99332.28;;;18.76;54.21
31239;BME280;17871;31.584;74.450;2023-02-01T06:02:54;99317.09;;;18.39;53.66
31239;BME280;17871;31.584;74.450;2023-02-01T06:05:47;99319.50;;;18.60;54.48
31239;BME280;17871;31.584;74.450;2023-02-01T06:08:24;99321.03;;;18.80;55.26
31239;BME280;17871;31.584;74.450;2023-02-01T06:11:05;99310.34;;;19.05;54.20
31239;BME280;17871;31.584;74.450;2023-02-01T06:13:39;99298.25;;;19.06;54.90
31239;BME280;17871;31.584;74.450;2023-02-01T06:16:12;99296.38;;;19.17;55.32
31239;BME280;17871;31.584;74.450;2023-02-01T06:18:54;99287.72;;;19.20;55.00
31239;BME280;17871;31.584;74.450;2023-02-01T06:21:28;99279.00;;;19.25;55.01
31239;BME280;17871;31.584;74.450;2023-02-01T06:24:00;99279.81;;;19.27;52.56
31239;BME280;17871;31.584;74.450;2023-02-01T06:26:30;99276.59;;;19.11;52.67
31239;BME280;17871;31.584;74.450;2023-02-01T06:29:00;99267.78;;;19.25;52.38
31239;BME280;17871;31.584;74.450;2023-02-01T06:31:31;99267.72;;;19.29;51.98
31239;BME280;17871;31.584;74.450;2023-02-01T06:34:05;99258.88;;;19.45;51.86
31239;BME280;17871;31.584;74.450;2023-02-01T06:36:35;99260.41;;;19.58;52.76
31239;BME280;17871;31.584;74.450;2023-02-01T06:39:06;99246.59;;;19.56;51.51
31239;BME280;17871;31.584;74.450;2023-02-01T06:41:36;99238.25;;;19.33;52.91
31239;BME280;17871;31.584;74.450;2023-02-01T06:44:06;99234.34;;;19.66;53.71
31239;BME280;17871;31.584;74.450;2023-02-01T06:46:36;99218.72;;;19.71;52.58
31239;BME280;17871;31.584;74.450;2023-02-01T06:49:07;99212.97;;;20.04;52.94
31239;BME280;17871;31.584;74.450;2023-02-01T06:51:44;99212.03;;;20.08;51.33
31239;BME280;17871;31.584;74.450;2023-02-01T06:54:44;99213.69;;;19.60;52.36
31239;BME280;17871;31.584;74.450;2023-02-01T06:57:15;99205.13;;;20.07;52.49
31239;BME280;17871;31.584;74.450;2023-02-01T06:59:48;99202.75;;;19.95;51.70
31239;BME280;17871;31.584;74.450;2023-02-01T07:02:17;99192.31;;;19.98;51.66
31239;BME280;17871;31.584;74.450;2023-02-01T07:04:47;99193.31;;;19.91;52.22
31239;BME280;17871;31.584;74.450;2023-02-01T07:07:16;99171.56;;;19.98;51.90
31239;BME280;17871;31.584;74.450;2023-02-01T07:09:51;99152.91;;;20.22;53.01
31239;BME280;17871;31.584;74.450;2023-02-01T07:12:28;99150.50;;;20.13;52.43
31239;BME280;17871;31.584;74.450;2023-02-01T07:14:57;99153.09;;;20.13;53.43
31239;BME280;17871;31.584;74.450;2023-02-01T07:17:27;99153.03;;;20.17;52.98
31239;BME280;17871;31.584;74.450;2023-02-01T07:19:58;99148.47;;;20.32;53.20
31239;BME280;17871;31.584;74.450;2023-02-01T07:22:28;99154.53;;;20.31;52.64
31239;BME280;17871;31.584;74.450;2023-02-01T07:24:57;99153.72;;;20.26;54.20
31239;BME280;17871;31.584;74.450;2023-02-01T07:27:27;99151.66;;;20.44;53.74
31239;BME280;17871;31.584;74.450;2023-02-01T07:29:56;99158.44;;;20.51;54.27
31239;BME280;17871;31.584;74.450;2023-02-01T07:32:29;99168.78;;;20.53;52.95
31239;BME280;17871;31.584;74.450;2023-02-01T07:34:58;99172.44;;;20.44;53.20
31239;BME280;17871;31.584;74.450;2023-02-01T07:37:28;99172.38;;;20.47;52.84
31239;BME280;17871;31.584;74.450;2023-02-01T07:39:58;99169.09;;;20.38;53.06
31239;BME280;17871;31.584;74.450;2023-02-01T07:42:27;99173.91;;;20.57;54.15
31239;BME280;17871;31.584;74.450;2023-02-01T07:44:57;99173.75;;;20.63;52.35
31239;BME280;17871;31.584;74.450;2023-02-01T07:47:41;99167.19;;;20.47;52.00
31239;BME280;17871;31.584;74.450;2023-02-01T07:50:10;99166.56;;;20.76;53.46
31239;BME280;17871;31.584;74.450;2023-02-01T07:52:40;99163.38;;;20.63;51.29
31239;BME280;17871;31.584;74.450;2023-02-01T07:55:09;99163.25;;;20.69;51.20
31239;BME280;17871;31.584;74.450;2023-02-01T07:57:39;99147.78;;;20.63;52.42
31239;BME280;17871;31.584;74.450;2023-02-01T08:00:08;99145.34;;;20.56;53.13
31239;BME280;17871;31.584;74.450;2023-02-01T08:03:11;99132.28;;;20.60;53.54
31239;BME280;17871;31.584;74.450;2023-02-01T08:05:42;99133.97;;;20.61;53.59
31239;BME280;17871;31.584;74.450;2023-02-01T08:08:11;99127.53;;;20.79;52.84
31239;BME280;17871;31.584;74.450;2023-02-01T08:10:41;99121.53;;;20.77;52.79
31239;BME280;17871;31.584;74.450;2023-02-01T08:13:10;99117.84;;;20.86;53.10
31239;BME280;17871;31.584;74.450;2023-02-01T08:15:40;99100.34;;;20.94;52.04
31239;BME280;17871;31.584;74.450;2023-02-01T08:18:09;99107.72;;;21.13;52.31
31239;BME280;17871;31.584;74.450;2023-02-01T08:20:39;99105.84;;;21.18;52.00
31239;BME280;17871;31.584;74.450;2023-02-01T08:23:11;99103.22;;;21.20;50.84
31239;BME280;17871;31.584;74.450;2023-02-01T08:26:36;99098.84;;;21.22;50.79
31239;BME280;17871;31.584;74.450;2023-02-01T08:29:07;99090.16;;;21.21;50.73
31239;BME280;17871;31.584;74.450;2023-02-01T08:31:38;99092.75;;;21.23;50.80
31239;BME280;17871;31.584;74.450;2023-02-01T08:34:11;99083.75;;;21.36;50.82
31239;BME280;17871;31.584;74.450;2023-02-01T08:36:54;99078.16;;;21.51;50.14
31239;BME280;17871;31.584;74.450;2023-02-01T08:43:16;99071.56;;;21.38;51.70
31239;BME280;17871;31.584;74.450;2023-02-01T08:45:45;99064.25;;;21.52;51.81
31239;BME280;17871;31.584;74.450;2023-02-01T08:48:15;99056.47;;;21.51;51.27
31239;BME280;17871;31.584;74.450;2023-02-01T08:50:45;99043.44;;;21.52;51.39
31239;BME280;17871;31.584;74.450;2023-02-01T08:53:18;99050.75;;;21.70;50.90
31239;BME280;17871;31.584;74.450;2023-02-01T08:55:50;99032.53;;;21.70;49.88
31239;BME280;17871;31.584;74.450;2023-02-01T08:58:20;99040.25;;;21.43;51.69
31239;BME280;17871;31.584;74.450;2023-02-01T09:00:50;99037.44;;;21.50;50.93
31239;BME280;17871;31.584;74.450;2023-02-01T09:03:21;99034.63;;;21.58;51.05
31239;BME280;17871;31.584;74.450;2023-02-01T09:05:51;99033.91;;;21.53;52.33
31239;BME280;17871;31.584;74.450;2023-02-01T09:08:21;99032.00;;;21.59;51.71
31239;BME280;17871;31.584;74.450;2023-02-01T09:10:50;99033.75;;;21.57;51.15
31239;BME280;17871;31.584;74.450;2023-02-01T09:13:20;99032.31;;;21.47;52.23
31239;BME280;17871;31.584;74.450;2023-02-01T09:15:51;99038.97;;;21.57;51.44
31239;BME280;17871;31.584;74.450;2023-02-01T09:18:21;99032.94;;;21.57;52.56
31239;BME280;17871;31.584;74.450;2023-02-01T09:21:24;99022.44;;;21.92;51.47
31239;BME280;17871;31.584;74.450;2023-02-01T09:27:59;99025.25;;;21.52;48.23
31239;BME280;17871;31.584;74.450;2023-02-01T09:30:29;99017.44;;;21.52;48.86
31239;BME280;17871;31.584;74.450;2023-02-01T09:33:00;99010.78;;;21.42;50.19
31239;BME280;17871;31.584;74.450;2023-02-01T09:35:30;99006.97;;;21.54;49.69
31239;BME280;17871;31.584;74.450;2023-02-01T09:42:18;99008.81;;;21.83;51.54
31239;BME280;17871;31.584;74.450;2023-02-01T09:45:06;98993.59;;;21.67;51.07
31239;BME280;17871;31.584;74.450;2023-02-01T09:47:54;98999.81;;;21.63;51.80
31239;BME280;17871;31.584;74.450;2023-02-01T09:50:50;98986.81;;;21.63;51.82
31239;BME280;17871;31.584;74.450;2023-02-01T09:56:11;98990.13;;;21.68;50.96
31239;BME280;17871;31.584;74.450;2023-02-01T09:59:31;98988.75;;;21.86;51.27
31239;BME280;17871;31.584;74.450;2023-02-01T10:02:23;98978.84;;;21.68;51.72
31239;BME280;17871;31.584;74.450;2023-02-01T10:04:58;98980.16;;;21.53;52.99
31239;BME280;17871;31.584;74.450;2023-02-01T10:19:09;98962.63;;;21.91;51.67
31239;BME280;17871;31.584;74.450;2023-02-01T10:22:09;98964.81;;;21.73;52.24
31239;BME280;17871;31.584;74.450;2023-02-01T10:24:45;98960.34;;;21.79;51.78
31239;BME280;17871;31.584;74.450;2023-02-01T10:27:25;98966.06;;;21.60;52.62
31239;BME280;17871;31.584;74.450;2023-02-01T10:30:06;98962.81;;;21.83;52.42
31239;BME280;17871;31.584;74.450;2023-02-01T10:32:48;98963.13;;;21.72;51.33
31239;BME280;17871;31.584;74.450;2023-02-01T10:35:27;98966.41;;;21.79;51.26
31239;BME280;17871;31.584;74.450;2023-02-01T10:38:01;98966.44;;;21.78;51.14
31239;BME280;17871;31.584;74.450;2023-02-01T10:40:31;98967.38;;;21.75;50.94
31239;BME280;17871;31.584;74.450;2023-02-01T10:43:03;98972.50;;;21.78;50.84
31239;BME280;17871;31.584;74.450;2023-02-01T10:45:34;98975.22;;;21.73;51.69
31239;BME280;17871;31.584;74.450;2023-02-01T10:48:08;98971.53;;;21.81;51.98
31239;BME280;17871;31.584;74.450;2023-02-01T10:54:00;98964.25;;;21.95;53.71
31239;BME280;17871;31.584;74.450;2023-02-01T10:56:38;98959.91;;;21.94;52.62
31239;BME280;17871;31.584;74.450;2023-02-01T11:02:39;98958.94;;;21.67;50.93
31239;BME280;17871;31.584;74.450;2023-02-01T11:05:10;98960.16;;;21.85;50.56
31239;BME280;17871;31.584;74.450;2023-02-01T11:07:47;98962.53;;;21.94;50.86
31239;BME280;17871;31.584;74.450;2023-02-01T11:10:36;98961.50;;;21.99;50.91
31239;BME280;17871;31.584;74.450;2023-02-01T11:13:15;98957.91;;;21.72;50.30
31239;BME280;17871;31.584;74.450;2023-02-01T11:15:55;98961.97;;;21.83;50.80
31239;BME280;17871;31.584;74.450;2023-02-01T11:18:29;98958.44;;;21.54;52.40
31239;BME280;17871;31.584;74.450;2023-02-01T11:20:59;98956.19;;;21.42;51.29
31239;BME280;17871;31.584;74.450;2023-02-01T11:23:31;98944.66;;;21.51;51.48
31239;BME280;17871;31.584;74.450;2023-02-01T11:26:19;98946.34;;;21.53;52.55
31239;BME280;17871;31.584;74.450;2023-02-01T11:29:04;98954.25;;;21.49;53.67
31239;BME280;17871;31.584;74.450;2023-02-01T11:31:50;98958.47;;;21.22;53.30
31239;BME280;17871;31.584;74.450;2023-02-01T11:34:28;98959.34;;;21.21;53.66
31239;BME280;17871;31.584;74.450;2023-02-01T11:37:01;98957.88;;;21.11;54.02
31239;BME280;17871;31.584;74.450;2023-02-01T11:39:39;98957.75;;;21.17;53.21
31239;BME280;17871;31.584;74.450;2023-02-01T11:42:18;98955.47;;;21.03;54.92
31239;BME280;17871;31.584;74.450;2023-02-01T11:48:32;98965.81;;;21.05;55.19
31239;BME280;17871;31.584;74.450;2023-02-01T11:52:03;98963.97;;;21.08;55.95
31239;BME280;17871;31.584;74.450;2023-02-01T12:00:40;98960.78;;;20.99;56.20
31239;BME280;17871;31.584;74.450;2023-02-01T12:06:51;98973.31;;;20.83;58.56
31239;BME280;17871;31.584;74.450;2023-02-01T12:12:24;98972.00;;;20.65;59.06
31239;BME280;17871;31.584;74.450;2023-02-01T12:15:08;98980.09;;;20.53;61.25
31239;BME280;17871;31.584;74.450;2023-02-01T12:21:17;98988.94;;;20.45;60.41
31239;BME280;17871;31.584;74.450;2023-02-01T12:39:32;98989.09;;;19.97;59.40
31239;BME280;17871;31.584;74.450;2023-02-01T12:43:09;98992.41;;;20.04;60.77
31239;BME280;17871;31.584;74.450;2023-02-01T12:45:53;98990.09;;;19.92;60.44
31239;BME280;17871;31.584;74.450;2023-02-01T12:51:05;98990.97;;;19.91;60.45
31239;BME280;17871;31.584;74.450;2023-02-01T12:54:37;98993.56;;;19.89;59.81
31239;BME280;17871;31.584;74.450;2023-02-01T12:56:41;98982.06;;;19.62;60.22
31239;BME280;17871;31.584;74.450;2023-02-01T12:59:30;98989.44;;;19.82;60.47
31239;BME280;17871;31.584;74.450;2023-02-01T13:05:05;98971.09;;;19.48;61.32
31239;BME280;17871;31.584;74.450;2023-02-01T13:07:45;98983.00;;;19.58;61.38
31239;BME280;17871;31.584;74.450;2023-02-01T13:11:34;98983.75;;;19.63;62.07
31239;BME280;17871;31.584;74.450;2023-02-01T13:13:46;98990.97;;;19.46;62.25
31239;BME280;17871;31.584;74.450;2023-02-01T13:16:20;98999.16;;;19.24;63.52
31239;BME280;17871;31.584;74.450;2023-02-01T13:19:49;98996.94;;;19.51;63.35
31239;BME280;17871;31.584;74.450;2023-02-01T13:25:38;99022.28;;;19.34;64.00
31239;BME280;17871;31.584;74.450;2023-02-01T13:28:35;99023.38;;;19.21;64.93
31239;BME280;17871;31.584;74.450;2023-02-01T13:34:11;99026.03;;;19.18;65.68
31239;BME280;17871;31.584;74.450;2023-02-01T13:39:48;99025.44;;;19.01;66.65
31239;BME280;17871;31.584;74.450;2023-02-01T13:42:34;99032.41;;;18.99;66.26
31239;BME280;17871;31.584;74.450;2023-02-01T13:45:23;99024.53;;;19.06;65.88
31239;BME280;17871;31.584;74.450;2023-02-01T13:47:57;99033.28;;;18.98;65.88
31239;BME280;17871;31.584;74.450;2023-02-01T13:50:34;99030.78;;;18.92;66.96
31239;BME280;17871;31.584;74.450;2023-02-01T13:53:18;99034.19;;;18.95;66.74
31239;BME280;17871;31.584;74.450;2023-02-01T13:55:59;99029.44;;;18.70;67.33
31239;BME280;17871;31.584;74.450;2023-02-01T13:58:32;99031.75;;;18.86;66.82
31239;BME280;17871;31.584;74.450;2023-02-01T14:03:58;99046.44;;;18.84;67.77
31239;BME280;17871;31.584;74.450;2023-02-01T14:06:42;99056.91;;;18.78;68.37
31239;BME280;17871;31.584;74.450;2023-02-01T14:09:35;99057.75;;;18.79;68.60
31239;BME280;17871;31.584;74.450;2023-02-01T14:21:31;99077.41;;;18.31;70.62
31239;BME280;17871;31.584;74.450;2023-02-01T14:26:46;99074.03;;;18.23;71.02
31239;BME280;17871;31.584;74.450;2023-02-01T14:32:14;99072.47;;;18.11;71.76
31239;BME280;17871;31.584;74.450;2023-02-01T14:42:48;99091.84;;;17.74;72.66
31239;BME280;17871;31.584;74.450;2023-02-01T14:50:46;99105.72;;;17.67;73.69
31239;BME280;17871;31.584;74.450;2023-02-01T14:53:28;99105.81;;;17.56;73.49
31239;BME280;17871;31.584;74.450;2023-02-01T14:56:13;99107.53;;;17.55;73.48
31239;BME280;17871;31.584;74.450;2023-02-01T14:59:12;99098.81;;;17.67;73.25
31239;BME280;17871;31.584;74.450;2023-02-01T15:01:50;99101.53;;;17.50;73.04
31239;BME280;17871;31.584;74.450;2023-02-01T15:04:26;99092.97;;;17.44;73.52
31239;BME280;17871;31.584;74.450;2023-02-01T15:07:14;99092.03;;;17.54;73.16
31239;BME280;17871;31.584;74.450;2023-02-01T15:09:48;99098.19;;;17.38;73.63
31239;BME280;17871;31.584;74.450;2023-02-01T15:12:28;99096.44;;;17.40;73.48
31239;BME280;17871;31.584;74.450;2023-02-01T15:15:24;99097.38;;;17.34;74.05
31239;BME280;17871;31.584;74.450;2023-02-01T15:17:57;99092.31;;;17.21;72.97
31239;BME280;17871;31.584;74.450;2023-02-01T15:20:31;99094.91;;;17.19;73.75
31239;BME280;17871;31.584;74.450;2023-02-01T15:23:02;99095.47;;;17.54;70.77
31239;BME280;17871;31.584;74.450;2023-02-01T15:25:35;99104.25;;;17.32;71.42
31239;BME280;17871;31.584;74.450;2023-02-01T15:28:13;99097.41;;;17.30;71.88
31239;BME280;17871;31.584;74.450;2023-02-01T15:30:58;99108.56;;;17.35;72.79
31239;BME280;17871;31.584;74.450;2023-02-01T15:33:29;99109.59;;;17.14;72.37
31239;BME280;17871;31.584;74.450;2023-02-01T15:38:44;99118.34;;;16.95;73.41
31239;BME280;17871;31.584;74.450;2023-02-01T15:41:18;99104.41;;;17.17;73.30
31239;BME280;17871;31.584;74.450;2023-02-01T15:44:12;99107.88;;;17.10;73.79
31239;BME280;17871;31.584;74.450;2023-02-01T15:46:45;99107.97;;;17.01;74.08
31239;BME280;17871;31.584;74.450;2023-02-01T15:49:19;99104.34;;;17.23;73.21
31239;BME280;17871;31.584;74.450;2023-02-01T15:51:50;99097.75;;;16.86;74.50
31239;BME280;17871;31.584;74.450;2023-02-01T15:54:41;99094.16;;;17.05;73.80
31239;BME280;17871;31.584;74.450;2023-02-01T15:57:29;99101.97;;;16.93;74.53
31239;BME280;17871;31.584;74.450;2023-02-01T16:00:33;99115.72;;;17.01;73.41
31239;BME280;17871;31.584;74.450;2023-02-01T16:03:28;99111.44;;;16.94;74.20
31239;BME280;17871;31.584;74.450;2023-02-01T16:06:05;99113.28;;;16.78;74.47
31239;BME280;17871;31.584;74.450;2023-02-01T16:08:35;99106.44;;;16.67;74.65
31239;BME280;17871;31.584;74.450;2023-02-01T16:13:37;99104.78;;;16.53;76.04
31239;BME280;17871;31.584;74.450;2023-02-01T16:16:07;99097.13;;;16.38;76.73